Time;durP1;ratioP1;P1;durP2;ratioP2;P2;SDS_P1;SDS_P2;PMS_P1;PMS_P2;Temp;Humidity;BMP_temperature;BMP_pressure;BME280_temperature;BME280_humidity;BME280_pressure;Samples;Min_cycle;Max_cycle;Signal;HPM_P1;HPM_P2
2023/12/31 00:02:58;;;;;;;18.03;10.70;;;2.90;99.90;;;;;;10413879;28;20288;-88
2023/12/31 00:08:01;;;;;;;25.80;15.27;;;3.00;99.90;;;;;;10409697;28;20239;-88
2023/12/31 00:13:03;;;;;;;25.43;14.07;;;2.90;99.90;;;;;;10409361;28;20304;-89
2023/12/31 00:18:06;;;;;;;25.47;13.63;;;3.10;99.90;;;;;;10412759;28;20249;-88
2023/12/31 00:23:11;;;;;;;26.47;14.60;;;2.80;99.90;;;;;;10411001;28;20278;-88
2023/12/31 00:28:14;;;;;;;24.57;13.43;;;2.70;99.90;;;;;;10412415;28;20241;-88
2023/12/31 00:33:17;;;;;;;33.83;14.13;;;2.70;99.90;;;;;;10411912;28;20277;-88
2023/12/31 00:38:19;;;;;;;30.10;17.03;;;2.80;99.90;;;;;;10393517;28;20250;-88
2023/12/31 00:43:22;;;;;;;25.27;14.17;;;2.80;99.90;;;;;;10393547;28;20232;-88
2023/12/31 00:48:24;;;;;;;24.07;15.40;;;2.60;99.90;;;;;;10393505;28;20294;-88
2023/12/31 00:53:27;;;;;;;25.30;14.87;;;2.60;99.90;;;;;;10376511;28;20234;-88
2023/12/31 00:58:29;;;;;;;28.97;14.57;;;2.60;99.90;;;;;;10393399;28;20255;-88
2023/12/31 01:03:33;;;;;;;25.47;14.00;;;2.60;99.90;;;;;;10393292;28;20263;-88
2023/12/31 01:08:36;;;;;;;17.73;9.33;;;2.60;99.90;;;;;;10378762;28;20264;-88
2023/12/31 01:13:39;;;;;;;27.27;13.57;;;2.60;99.90;;;;;;10446397;28;20229;-88
2023/12/31 01:18:41;;;;;;;23.13;12.90;;;2.50;99.90;;;;;;10392710;28;20261;-87
2023/12/31 01:23:44;;;;;;;26.13;13.07;;;2.30;99.90;;;;;;10410937;28;20307;-87
2023/12/31 01:28:49;;;;;;;23.97;14.17;;;2.10;99.90;;;;;;10396791;28;20226;-88
2023/12/31 01:33:51;;;;;;;24.43;14.37;;;2.10;99.90;;;;;;10432758;28;20235;-88
2023/12/31 01:38:54;;;;;;;24.33;13.50;;;2.20;99.90;;;;;;10378372;28;20258;-87
2023/12/31 01:44:05;;;;;;;22.13;12.63;;;2.30;99.90;;;;;;10369945;28;20242;-87
2023/12/31 01:49:09;;;;;;;17.90;10.10;;;2.30;99.90;;;;;;10365989;28;20252;-88
2023/12/31 01:54:11;;;;;;;19.83;13.33;;;2.50;99.90;;;;;;10433216;28;20699;-87
2023/12/31 01:59:14;;;;;;;22.63;13.57;;;2.90;99.90;;;;;;10432197;28;20320;-88
2023/12/31 02:04:20;;;;;;;17.23;11.37;;;2.70;99.90;;;;;;10431705;28;20227;-88
2023/12/31 02:09:23;;;;;;;27.60;12.53;;;2.60;99.90;;;;;;10450721;28;20231;-88
2023/12/31 02:14:25;;;;;;;22.17;12.90;;;2.60;99.90;;;;;;10439115;28;20255;-88
2023/12/31 02:19:28;;;;;;;18.60;10.87;;;2.60;99.90;;;;;;10430120;28;20258;-89
2023/12/31 02:24:47;;;;;;;21.77;12.70;;;2.70;99.90;;;;;;10431523;28;20261;-88
2023/12/31 02:29:49;;;;;;;27.13;13.73;;;2.90;99.90;;;;;;10395217;28;20264;-88
2023/12/31 02:34:52;;;;;;;26.53;13.20;;;3.10;99.90;;;;;;10350024;28;20217;-88
2023/12/31 02:39:54;;;;;;;19.50;11.67;;;3.20;99.90;;;;;;10368746;28;20246;-88
2023/12/31 02:44:57;;;;;;;24.00;13.90;;;3.30;99.90;;;;;;10449564;28;20232;-88
2023/12/31 02:49:59;;;;;;;26.30;14.30;;;3.50;99.90;;;;;;10411017;28;20232;-88
2023/12/31 02:55:02;;;;;;;19.13;11.63;;;3.30;99.90;;;;;;10390045;28;20239;-88
2023/12/31 03:00:05;;;;;;;20.53;11.30;;;3.30;99.90;;;;;;10401051;28;20225;-88
2023/12/31 03:05:08;;;;;;;17.93;11.50;;;3.60;99.90;;;;;;10430407;28;20265;-88
2023/12/31 03:10:11;;;;;;;15.80;10.27;;;3.50;99.90;;;;;;10448649;28;20624;-88
2023/12/31 03:15:14;;;;;;;18.07;11.13;;;3.50;99.90;;;;;;10400163;28;20233;-88
2023/12/31 03:20:16;;;;;;;22.43;10.97;;;3.40;99.90;;;;;;10411756;28;20224;-88
2023/12/31 03:25:19;;;;;;;19.80;10.67;;;3.30;99.90;;;;;;10437846;28;20243;-88
2023/12/31 03:30:22;;;;;;;17.87;11.30;;;3.70;99.90;;;;;;10429144;28;20269;-88
2023/12/31 03:35:24;;;;;;;20.23;11.13;;;3.80;99.90;;;;;;10374022;28;20281;-88
2023/12/31 03:40:27;;;;;;;20.93;11.93;;;3.80;99.90;;;;;;10406375;28;20227;-88
2023/12/31 03:45:29;;;;;;;18.97;11.33;;;3.80;99.90;;;;;;10455943;28;20233;-88
2023/12/31 03:50:32;;;;;;;18.73;11.83;;;3.80;99.90;;;;;;10454547;28;20266;-89
2023/12/31 03:55:34;;;;;;;15.13;10.83;;;3.50;99.90;;;;;;10437957;28;20253;-89
2023/12/31 04:00:37;;;;;;;19.23;10.40;;;3.50;99.90;;;;;;10433034;28;20683;-89
2023/12/31 04:05:39;;;;;;;13.90;9.53;;;3.60;99.90;;;;;;10435688;28;20257;-88
2023/12/31 04:10:42;;;;;;;17.77;9.93;;;3.80;99.90;;;;;;10401228;28;20226;-87
2023/12/31 04:15:45;;;;;;;12.33;9.03;;;3.90;99.90;;;;;;10395357;28;20233;-87
2023/12/31 04:20:47;;;;;;;12.60;7.63;;;3.50;99.90;;;;;;10416587;28;20621;-88
2023/12/31 04:25:50;;;;;;;16.67;9.00;;;3.70;99.90;;;;;;10417443;28;20268;-88
2023/12/31 04:30:52;;;;;;;15.27;8.30;;;3.80;99.90;;;;;;10353982;28;20269;-88
2023/12/31 04:35:55;;;;;;;33.47;17.03;;;3.70;99.90;;;;;;10353684;28;20255;-88
2023/12/31 04:40:58;;;;;;;34.00;18.83;;;3.50;99.90;;;;;;10401568;28;20236;-88
2023/12/31 04:46:04;;;;;;;34.43;18.77;;;3.50;99.90;;;;;;10434073;28;20243;-88
2023/12/31 04:51:07;;;;;;;19.03;11.87;;;3.30;99.90;;;;;;10451546;28;20285;-88
2023/12/31 04:56:21;;;;;;;23.17;13.87;;;3.10;99.90;;;;;;10408053;28;20310;-88
2023/12/31 05:01:26;;;;;;;16.43;11.10;;;2.80;99.90;;;;;;10427080;28;20247;-88
2023/12/31 05:06:29;;;;;;;19.83;10.83;;;3.00;99.90;;;;;;10418372;28;20253;-88
2023/12/31 05:11:31;;;;;;;15.77;9.53;;;3.30;99.90;;;;;;10451064;28;20758;-88
2023/12/31 05:16:34;;;;;;;17.23;9.50;;;3.60;99.90;;;;;;10451764;28;20304;-88
2023/12/31 05:21:39;;;;;;;10.90;6.97;;;3.70;99.90;;;;;;10450909;28;20295;-88
2023/12/31 05:26:42;;;;;;;13.53;5.87;;;3.90;99.90;;;;;;10432920;28;20249;-88
2023/12/31 05:31:44;;;;;;;16.93;8.83;;;4.40;99.90;;;;;;10450572;28;20311;-88
2023/12/31 05:36:47;;;;;;;17.43;10.03;;;4.30;99.90;;;;;;10450303;28;20252;-88
2023/12/31 05:41:49;;;;;;;17.17;10.40;;;4.10;99.90;;;;;;10420266;28;20232;-88
2023/12/31 05:46:52;;;;;;;13.33;9.93;;;3.90;99.90;;;;;;10374535;28;20260;-88
2023/12/31 05:51:54;;;;;;;13.63;8.70;;;3.90;99.90;;;;;;10391096;28;20220;-87
2023/12/31 05:56:57;;;;;;;16.57;9.67;;;4.00;99.90;;;;;;10368203;28;20303;-88
2023/12/31 06:01:59;;;;;;;17.10;8.23;;;3.60;99.90;;;;;;10428037;28;20260;-88
2023/12/31 06:07:02;;;;;;;16.23;8.40;;;3.70;99.90;;;;;;10449971;28;20249;-89
2023/12/31 06:12:04;;;;;;;13.50;8.77;;;3.90;99.90;;;;;;10449875;28;20265;-88
2023/12/31 06:17:07;;;;;;;16.13;9.90;;;4.20;99.90;;;;;;10431151;28;20314;-88
2023/12/31 06:22:11;;;;;;;10.47;6.80;;;4.50;99.90;;;;;;10436731;28;20635;-88
2023/12/31 06:27:13;;;;;;;17.70;11.73;;;4.80;99.90;;;;;;10390098;28;20244;-88
2023/12/31 06:32:16;;;;;;;22.63;12.13;;;4.70;99.90;;;;;;10363737;28;20228;-88
2023/12/31 06:37:20;;;;;;;14.60;9.60;;;4.40;99.90;;;;;;10375598;28;20251;-88
2023/12/31 06:42:22;;;;;;;13.13;9.23;;;4.30;99.90;;;;;;10425646;28;20234;-88
2023/12/31 06:47:25;;;;;;;19.80;12.40;;;4.10;99.90;;;;;;10448788;28;20274;-88
2023/12/31 06:52:27;;;;;;;18.73;11.23;;;4.00;99.90;;;;;;10415811;28;20269;-88
2023/12/31 06:57:30;;;;;;;19.20;11.73;;;3.80;99.90;;;;;;10406616;28;20259;-88
2023/12/31 07:02:32;;;;;;;21.13;13.03;;;3.50;99.90;;;;;;10445276;28;20661;-88
2023/12/31 07:07:36;;;;;;;22.23;13.80;;;3.50;99.90;;;;;;10430961;28;20234;-88
2023/12/31 07:12:38;;;;;;;20.50;11.27;;;2.60;99.90;;;;;;10405703;28;20270;-88
2023/12/31 07:17:41;;;;;;;23.20;12.87;;;2.60;99.90;;;;;;10409560;28;20270;-88
2023/12/31 07:22:44;;;;;;;21.47;13.30;;;2.50;99.90;;;;;;10415214;28;20246;-88
2023/12/31 07:27:46;;;;;;;16.27;10.60;;;2.50;99.90;;;;;;10365190;28;20236;-88
2023/12/31 07:32:49;;;;;;;15.33;9.80;;;2.40;99.90;;;;;;10348581;28;20224;-88
2023/12/31 07:37:52;;;;;;;22.60;14.87;;;2.60;99.90;;;;;;10370064;28;20771;-89
2023/12/31 07:42:54;;;;;;;18.07;12.43;;;2.80;99.90;;;;;;10415256;28;20225;-88
2023/12/31 07:47:57;;;;;;;21.70;13.60;;;3.00;99.90;;;;;;10433153;28;20264;-88
2023/12/31 07:52:59;;;;;;;26.13;15.30;;;3.10;99.90;;;;;;10410197;28;20238;-88
2023/12/31 07:58:02;;;;;;;26.57;13.53;;;3.00;99.90;;;;;;10405379;28;20293;-89
2023/12/31 08:03:04;;;;;;;21.97;12.17;;;3.30;99.90;;;;;;10451833;28;20225;-88
2023/12/31 08:08:11;;;;;;;18.87;10.33;;;3.50;99.90;;;;;;10417857;28;20276;-88
2023/12/31 08:13:13;;;;;;;15.97;10.67;;;3.60;99.90;;;;;;10413594;28;20289;-88
2023/12/31 08:18:16;;;;;;;25.80;14.53;;;3.60;99.90;;;;;;10415343;28;20270;-89
2023/12/31 08:23:19;;;;;;;12.83;8.10;;;4.00;99.90;;;;;;10420361;28;20229;-87
2023/12/31 08:28:22;;;;;;;17.47;12.10;;;4.30;99.90;;;;;;10454176;28;20241;-88
2023/12/31 08:33:24;;;;;;;22.23;11.70;;;4.50;99.90;;;;;;10384632;28;20283;-88
2023/12/31 08:38:27;;;;;;;14.40;10.00;;;4.80;99.90;;;;;;10405768;28;20628;-88
2023/12/31 08:43:30;;;;;;;14.17;8.37;;;5.20;99.90;;;;;;10436398;28;20230;-88
2023/12/31 08:48:32;;;;;;;17.30;10.13;;;5.40;99.90;;;;;;10452849;28;20335;-89
2023/12/31 08:53:36;;;;;;;13.67;9.23;;;5.60;99.90;;;;;;10453397;28;20642;-89
2023/12/31 08:58:38;;;;;;;19.50;12.80;;;6.10;99.90;;;;;;10405678;28;20254;-89
2023/12/31 09:03:41;;;;;;;19.83;11.90;;;5.90;99.90;;;;;;10359313;28;21781;-89
2023/12/31 09:08:43;;;;;;;14.53;9.03;;;6.10;99.90;;;;;;10434054;28;20239;-89
2023/12/31 09:13:46;;;;;;;15.33;11.00;;;5.90;99.90;;;;;;10411262;28;20329;-89
2023/12/31 09:18:48;;;;;;;13.13;10.17;;;5.80;99.90;;;;;;10411557;28;20725;-89
2023/12/31 09:23:51;;;;;;;9.40;7.07;;;6.00;99.90;;;;;;10411517;28;20644;-89
2023/12/31 09:28:53;;;;;;;13.00;9.87;;;5.90;99.90;;;;;;10426914;28;20279;-89
2023/12/31 09:33:56;;;;;;;20.67;12.30;;;6.00;99.90;;;;;;10410253;28;20262;-89
2023/12/31 09:38:58;;;;;;;19.80;12.23;;;6.10;99.90;;;;;;10373379;28;20308;-89
2023/12/31 09:44:03;;;;;;;17.30;11.43;;;6.20;99.90;;;;;;10377300;28;20246;-89
2023/12/31 09:49:06;;;;;;;22.47;14.57;;;6.30;99.90;;;;;;10425003;28;20274;-88
2023/12/31 09:54:10;;;;;;;15.10;8.90;;;6.30;99.90;;;;;;10449765;28;20238;-87
2023/12/31 09:59:15;;;;;;;14.67;9.43;;;6.10;99.90;;;;;;10413905;28;20306;-88
2023/12/31 10:04:18;;;;;;;22.33;11.60;;;6.60;99.90;;;;;;10406655;28;20239;-87
2023/12/31 10:09:27;;;;;;;8.47;5.70;;;7.00;99.90;;;;;;10400245;28;20238;-87
2023/12/31 10:14:34;;;;;;;22.80;15.60;;;7.10;99.90;;;;;;10429708;28;20256;-87
2023/12/31 10:19:39;;;;;;;17.00;10.03;;;7.10;99.90;;;;;;10449206;28;20788;-87
2023/12/31 10:24:41;;;;;;;25.83;17.00;;;6.90;99.90;;;;;;10432537;28;20228;-88
2023/12/31 10:29:44;;;;;;;24.67;13.90;;;7.20;99.90;;;;;;10367588;28;20237;-88
2023/12/31 10:35:02;;;;;;;9.67;7.60;;;7.30;99.90;;;;;;10386909;28;20238;-88
2023/12/31 10:40:17;;;;;;;22.83;13.07;;;7.30;99.90;;;;;;10419388;28;20251;-88
2023/12/31 10:45:20;;;;;;;22.77;15.37;;;7.40;99.90;;;;;;10370787;28;20335;-88
2023/12/31 10:50:24;;;;;;;25.10;15.40;;;7.50;99.90;;;;;;10366896;28;20273;-88
2023/12/31 10:55:27;;;;;;;22.60;13.67;;;7.50;99.90;;;;;;10387057;28;20239;-89
2023/12/31 11:00:31;;;;;;;15.80;10.23;;;7.50;99.90;;;;;;10374032;28;20266;-90
2023/12/31 11:05:34;;;;;;;22.20;12.70;;;7.70;99.90;;;;;;10419028;28;20231;-89
2023/12/31 11:10:38;;;;;;;15.20;10.83;;;7.80;99.90;;;;;;10388588;28;20239;-89
2023/12/31 11:15:41;;;;;;;30.30;17.20;;;7.70;99.90;;;;;;10404079;28;20230;-89
2023/12/31 11:21:03;;;;;;;19.43;10.90;;;7.50;99.90;;;;;;10407913;28;20251;-87
2023/12/31 11:26:07;;;;;;;30.80;22.80;;;7.60;99.90;;;;;;10366849;28;20236;-87
2023/12/31 11:31:09;;;;;;;27.30;15.50;;;6.60;99.90;;;;;;10360206;28;20686;-88
2023/12/31 11:36:14;;;;;;;26.83;15.87;;;7.00;99.90;;;;;;10392754;28;20233;-88
2023/12/31 11:41:22;;;;;;;28.53;17.70;;;7.40;99.90;;;;;;10408328;28;20299;-88
2023/12/31 11:46:42;;;;;;;28.37;15.73;;;7.60;99.90;;;;;;10410871;28;20696;-88
2023/12/31 11:51:54;;;;;;;25.97;15.97;;;7.60;99.90;;;;;;10405817;28;20231;-87
2023/12/31 11:56:58;;;;;;;13.00;8.83;;;7.90;99.90;;;;;;10404191;28;20250;-88
2023/12/31 12:02:02;;;;;;;33.47;17.73;;;8.00;99.90;;;;;;10394168;28;20639;-88
2023/12/31 12:07:05;;;;;;;24.80;15.30;;;8.30;99.90;;;;;;10425566;28;20251;-83
2023/12/31 12:12:09;;;;;;;24.63;13.80;;;8.30;99.90;;;;;;10392114;28;20235;-84
2023/12/31 12:17:11;;;;;;;38.73;16.57;;;8.20;99.90;;;;;;10439051;28;20215;-87
2023/12/31 12:22:14;;;;;;;26.87;16.80;;;8.50;99.90;;;;;;10436916;28;20233;-87
2023/12/31 12:27:17;;;;;;;37.57;20.87;;;8.40;99.90;;;;;;10453709;28;20492;-87
2023/12/31 12:32:19;;;;;;;29.97;19.30;;;8.20;99.90;;;;;;10453795;28;20756;-88
2023/12/31 12:37:22;;;;;;;27.47;16.30;;;8.00;99.90;;;;;;10453474;28;20247;-87
2023/12/31 12:42:26;;;;;;;29.20;17.43;;;7.80;99.90;;;;;;10454017;28;20298;-87
2023/12/31 12:47:28;;;;;;;29.30;18.20;;;7.70;99.90;;;;;;10452815;28;20250;-87
2023/12/31 12:52:31;;;;;;;26.20;16.53;;;7.50;99.90;;;;;;10455179;28;20316;-87
2023/12/31 12:57:34;;;;;;;26.07;16.33;;;7.40;99.90;;;;;;10438487;28;20231;-84
2023/12/31 13:02:36;;;;;;;25.10;17.47;;;7.60;99.90;;;;;;10392070;28;20645;-84
2023/12/31 13:07:39;;;;;;;29.47;17.33;;;7.60;99.90;;;;;;10450764;28;20249;-85
2023/12/31 13:12:41;;;;;;;27.83;16.70;;;7.50;99.90;;;;;;10401440;28;20229;-85
2023/12/31 13:17:44;;;;;;;33.60;18.23;;;7.60;99.90;;;;;;10426230;28;20254;-85
2023/12/31 13:22:46;;;;;;;30.83;18.23;;;7.60;99.90;;;;;;10389069;28;20235;-85
2023/12/31 13:27:50;;;;;;;34.07;23.27;;;7.50;99.90;;;;;;10417984;28;20699;-84
2023/12/31 13:32:53;;;;;;;46.83;24.70;;;6.80;99.90;;;;;;10383037;28;20283;-85
2023/12/31 13:37:55;;;;;;;43.07;24.63;;;6.40;99.90;;;;;;10399237;28;20256;-85
2023/12/31 13:42:59;;;;;;;43.83;25.27;;;6.50;99.90;;;;;;10415643;28;20227;-85
2023/12/31 13:48:02;;;;;;;42.33;26.73;;;6.50;99.90;;;;;;10415531;28;20261;-84
2023/12/31 13:53:04;;;;;;;42.40;24.90;;;6.50;99.90;;;;;;10057776;28;9999835;-85
2023/12/31 13:58:08;;;;;;;36.57;23.17;;;6.50;99.90;;;;;;10404706;28;20262;-85
2023/12/31 14:03:11;;;;;;;30.40;19.83;;;6.10;99.90;;;;;;10418647;28;20284;-84
2023/12/31 14:08:16;;;;;;;29.30;18.97;;;6.30;99.90;;;;;;10411942;28;20229;-84
2023/12/31 14:13:18;;;;;;;28.73;18.40;;;6.50;99.90;;;;;;10446835;28;20236;-84
2023/12/31 14:18:21;;;;;;;39.90;23.77;;;6.50;99.90;;;;;;10407033;28;20275;-85
2023/12/31 14:23:24;;;;;;;27.87;16.87;;;6.30;99.90;;;;;;10423686;28;20258;-85
2023/12/31 14:28:26;;;;;;;31.93;20.07;;;6.00;99.90;;;;;;10427448;28;20282;-85
2023/12/31 14:33:28;;;;;;;24.63;15.20;;;5.70;99.90;;;;;;10427497;28;20262;-85
2023/12/31 14:38:31;;;;;;;31.17;18.73;;;5.90;99.90;;;;;;10382805;28;20262;-85
2023/12/31 14:43:34;;;;;;;27.47;16.90;;;6.10;99.90;;;;;;10393043;28;20265;-85
2023/12/31 14:48:36;;;;;;;29.43;18.60;;;6.20;99.90;;;;;;10448842;28;20313;-85
2023/12/31 14:53:39;;;;;;;25.73;14.23;;;6.40;99.90;;;;;;10397936;28;20693;-86
2023/12/31 14:58:41;;;;;;;30.87;20.83;;;6.40;99.90;;;;;;10445713;28;20815;-86
2023/12/31 15:03:44;;;;;;;34.80;21.60;;;6.30;99.90;;;;;;10448738;28;20253;-86
2023/12/31 15:08:52;;;;;;;42.90;25.57;;;6.40;99.90;;;;;;10444442;28;20635;-86
2023/12/31 15:13:55;;;;;;;39.17;22.97;;;6.80;99.90;;;;;;10433437;28;20236;-87
2023/12/31 15:18:58;;;;;;;55.30;32.47;;;6.50;99.90;;;;;;10456188;28;20241;-87
2023/12/31 15:24:00;;;;;;;50.03;29.03;;;6.40;99.90;;;;;;10456304;28;20275;-86
2023/12/31 15:29:03;;;;;;;44.10;26.80;;;6.50;99.90;;;;;;10442752;28;20233;-86
2023/12/31 15:34:06;;;;;;;50.17;29.37;;;6.50;99.90;;;;;;10455357;28;20820;-86
2023/12/31 15:39:14;;;;;;;42.63;25.30;;;6.40;99.90;;;;;;10427582;28;20251;-87
2023/12/31 15:44:17;;;;;;;50.93;26.17;;;6.60;99.90;;;;;;10422390;28;20688;-86
2023/12/31 15:49:19;;;;;;;54.60;31.70;;;6.20;99.90;;;;;;10414503;28;20263;-86
2023/12/31 15:54:22;;;;;;;56.63;30.07;;;6.10;99.90;;;;;;10414496;28;20243;-86
2023/12/31 15:59:25;;;;;;;58.37;32.93;;;5.90;99.90;;;;;;10446469;28;20258;-86
2023/12/31 16:04:27;;;;;;;55.20;33.10;;;6.00;99.90;;;;;;10446288;28;20224;-87
2023/12/31 16:09:30;;;;;;;137.43;68.70;;;4.90;99.90;;;;;;10436240;28;20235;-84
2023/12/31 16:14:32;;;;;;;92.77;53.23;;;4.20;99.90;;;;;;10423591;28;20239;-83
2023/12/31 16:19:35;;;;;;;51.87;27.10;;;4.60;99.90;;;;;;10395104;28;20252;-83
2023/12/31 16:24:37;;;;;;;57.43;31.97;;;4.70;99.90;;;;;;10411726;28;20323;-83
2023/12/31 16:29:40;;;;;;;63.20;34.83;;;4.70;99.90;;;;;;10403519;28;20371;-82
2023/12/31 16:34:43;;;;;;;51.27;28.53;;;4.60;99.90;;;;;;10404061;28;20231;-82
2023/12/31 16:39:45;;;;;;;53.00;30.53;;;4.70;99.90;;;;;;10412835;28;20246;-82
2023/12/31 16:44:48;;;;;;;52.03;29.87;;;4.20;99.90;;;;;;10394313;28;20293;-82
2023/12/31 16:49:50;;;;;;;66.47;36.93;;;3.90;99.90;;;;;;10385179;28;20259;-83
2023/12/31 16:54:54;;;;;;;73.83;36.43;;;3.70;99.90;;;;;;10395019;28;20212;-82
2023/12/31 16:59:56;;;;;;;86.20;44.27;;;3.70;99.90;;;;;;10404105;28;20310;-83
2023/12/31 17:05:03;;;;;;;206.23;99.90;;;3.70;99.90;;;;;;10378633;28;20243;-82
2023/12/31 17:10:11;;;;;;;94.10;51.07;;;4.10;99.90;;;;;;10409911;28;20251;-83
2023/12/31 17:15:14;;;;;;;143.17;68.50;;;4.60;99.90;;;;;;10411188;28;20239;-83
2023/12/31 17:20:16;;;;;;;125.20;67.37;;;5.00;99.90;;;;;;10408833;28;20711;-83
2023/12/31 17:25:19;;;;;;;71.97;39.40;;;5.00;99.90;;;;;;10410902;28;20262;-83
2023/12/31 17:30:21;;;;;;;68.80;37.47;;;5.20;99.90;;;;;;10378247;28;20350;-82
2023/12/31 17:35:24;;;;;;;69.97;42.60;;;5.00;99.90;;;;;;10391942;28;20258;-83
2023/12/31 17:40:26;;;;;;;161.70;84.10;;;5.10;99.90;;;;;;10391414;28;20309;-82
2023/12/31 17:45:29;;;;;;;49.63;28.97;;;5.20;99.90;;;;;;10422949;28;20240;-83
2023/12/31 17:50:32;;;;;;;226.43;121.20;;;5.00;99.90;;;;;;10374507;28;20265;-84
2023/12/31 17:55:35;;;;;;;143.27;76.73;;;5.30;99.90;;;;;;10368720;28;20750;-84
2023/12/31 18:00:37;;;;;;;92.97;51.07;;;5.60;99.90;;;;;;10386255;28;20731;-83
2023/12/31 18:05:40;;;;;;;187.70;97.57;;;5.90;99.90;;;;;;10438860;28;20898;-83
2023/12/31 18:10:42;;;;;;;185.23;97.60;;;6.50;99.90;;;;;;10372189;28;20242;-83
2023/12/31 18:15:45;;;;;;;214.17;111.67;;;6.70;99.90;;;;;;10056399;28;10000200;-84
2023/12/31 18:20:48;;;;;;;127.13;71.03;;;6.70;99.90;;;;;;10363070;28;20806;-83
2023/12/31 18:25:50;;;;;;;147.20;77.23;;;7.00;99.90;;;;;;10419607;28;20239;-84
2023/12/31 18:30:53;;;;;;;134.37;75.87;;;7.10;99.90;;;;;;10398093;28;20621;-84
2023/12/31 18:35:57;;;;;;;183.43;97.17;;;7.10;99.90;;;;;;10385610;28;20237;-83
2023/12/31 18:41:00;;;;;;;174.83;96.30;;;7.00;99.90;;;;;;10390524;28;20255;-84
2023/12/31 18:46:03;;;;;;;112.10;63.63;;;7.10;99.90;;;;;;10388032;28;20247;-84
2023/12/31 18:51:14;;;;;;;140.37;78.70;;;7.40;99.90;;;;;;10389765;28;20245;-84
2023/12/31 18:56:17;;;;;;;88.67;44.23;;;7.50;99.90;;;;;;10370297;28;20814;-84
2023/12/31 19:01:19;;;;;;;127.27;59.27;;;7.10;99.90;;;;;;10389698;28;20286;-83
2023/12/31 19:06:22;;;;;;;78.50;43.47;;;6.80;99.90;;;;;;10401032;28;20261;-83
2023/12/31 19:11:24;;;;;;;119.20;65.07;;;6.80;99.90;;;;;;10366806;28;20240;-83
2023/12/31 19:16:28;;;;;;;137.97;79.17;;;6.90;99.90;;;;;;10377052;28;20231;-83
2023/12/31 19:21:31;;;;;;;94.67;55.23;;;7.00;99.90;;;;;;10411268;28;20248;-84
2023/12/31 19:26:33;;;;;;;127.40;73.93;;;7.00;99.90;;;;;;10418613;28;20653;-83
2023/12/31 19:31:36;;;;;;;108.33;63.60;;;6.80;99.90;;;;;;10447969;28;20291;-85
2023/12/31 19:36:38;;;;;;;99.53;51.97;;;6.60;99.90;;;;;;10422077;28;20235;-83
2023/12/31 19:41:41;;;;;;;113.27;64.50;;;6.70;99.90;;;;;;10351826;28;20280;-84
2023/12/31 19:46:47;;;;;;;84.23;45.47;;;6.50;99.90;;;;;;10389286;28;20256;-84
2023/12/31 19:51:51;;;;;;;114.60;61.57;;;6.80;99.90;;;;;;10406347;28;20231;-84
2023/12/31 20:02:32;;;;;;;75.13;45.63;;;7.10;99.90;;;;;;10425388;22;20269;-85
2023/12/31 20:07:35;;;;;;;75.20;46.33;;;6.70;99.90;;;;;;10335388;28;20255;-84
2023/12/31 20:12:37;;;;;;;75.60;45.73;;;6.70;99.90;;;;;;10353658;28;20290;-84
2023/12/31 20:17:41;;;;;;;97.00;57.13;;;6.10;99.90;;;;;;10353264;28;20242;-84
2023/12/31 20:22:44;;;;;;;117.00;69.10;;;6.30;99.90;;;;;;10371303;28;20278;-84
2023/12/31 20:27:47;;;;;;;50.40;30.33;;;6.20;99.90;;;;;;10338944;28;20236;-84
2023/12/31 20:32:50;;;;;;;61.47;35.50;;;6.20;99.90;;;;;;10288412;28;20291;-84
2023/12/31 20:37:52;;;;;;;60.03;36.03;;;5.80;99.90;;;;;;10308094;28;20240;-84
2023/12/31 20:42:55;;;;;;;60.83;39.67;;;5.60;99.90;;;;;;10331712;28;20248;-84
2023/12/31 20:47:57;;;;;;;78.47;41.93;;;5.40;99.90;;;;;;10351474;28;20221;-84
2023/12/31 20:53:01;;;;;;;71.87;38.00;;;5.60;99.90;;;;;;10351665;28;20290;-83
2023/12/31 20:58:03;;;;;;;178.43;82.03;;;5.40;99.90;;;;;;10340510;28;20691;-84
2023/12/31 21:03:06;;;;;;;219.73;101.47;;;5.40;99.90;;;;;;10333113;28;20320;-84
2023/12/31 21:08:09;;;;;;;132.97;64.53;;;5.50;99.90;;;;;;10369230;28;20676;-84
2023/12/31 21:13:11;;;;;;;71.87;39.20;;;5.40;99.90;;;;;;10317321;28;20247;-84
2023/12/31 21:18:15;;;;;;;106.07;60.27;;;5.40;99.90;;;;;;10331813;28;20236;-84
2023/12/31 21:23:20;;;;;;;122.30;70.53;;;5.70;99.90;;;;;;10316270;28;20264;-84
2023/12/31 21:28:25;;;;;;;55.07;33.03;;;5.90;99.90;;;;;;10299408;28;20623;-84
2023/12/31 21:33:28;;;;;;;147.27;79.53;;;5.80;99.90;;;;;;10348157;28;20406;-84
2023/12/31 21:38:31;;;;;;;130.60;71.77;;;5.40;99.90;;;;;;10348684;28;20233;-84
2023/12/31 21:43:33;;;;;;;133.67;72.57;;;5.90;99.90;;;;;;10341601;28;20262;-84
2023/12/31 21:48:36;;;;;;;54.20;33.17;;;6.10;99.90;;;;;;10367579;28;20294;-84
2023/12/31 21:53:42;;;;;;;51.00;31.00;;;5.70;99.90;;;;;;10338641;28;20245;-84
2023/12/31 21:58:44;;;;;;;49.50;29.93;;;5.20;99.90;;;;;;10343210;28;20681;-84
2023/12/31 22:03:47;;;;;;;61.70;33.87;;;5.00;99.90;;;;;;10298151;28;20269;-84
2023/12/31 22:08:49;;;;;;;84.93;44.53;;;5.00;99.90;;;;;;10354271;28;20283;-84
2023/12/31 22:13:52;;;;;;;86.83;46.67;;;5.10;99.90;;;;;;10309803;28;20295;-84
2023/12/31 22:18:54;;;;;;;65.87;39.50;;;5.20;99.90;;;;;;10365961;28;20230;-84
2023/12/31 22:23:57;;;;;;;62.17;35.90;;;5.10;99.90;;;;;;10334045;28;20256;-85
2023/12/31 22:29:00;;;;;;;74.67;44.60;;;4.90;99.90;;;;;;10336886;28;20233;-85
2023/12/31 22:34:02;;;;;;;74.07;42.67;;;4.50;99.90;;;;;;10366668;28;20232;-85
2023/12/31 22:39:05;;;;;;;92.40;52.00;;;4.20;99.90;;;;;;10367802;28;20290;-85
2023/12/31 22:44:07;;;;;;;85.23;50.37;;;4.20;99.90;;;;;;10366836;28;20270;-85
2023/12/31 22:49:10;;;;;;;475.87;260.90;;;4.00;99.90;;;;;;10360071;28;20228;-85
2023/12/31 22:54:12;;;;;;;50.47;32.07;;;3.90;99.90;;;;;;10325695;28;20245;-84
2023/12/31 22:59:15;;;;;;;360.47;160.43;;;4.00;99.90;;;;;;10315020;28;20228;-84
2023/12/31 23:04:17;;;;;;;150.73;78.43;;;3.60;99.90;;;;;;10324271;28;20305;-84
2023/12/31 23:09:20;;;;;;;460.73;329.20;;;4.80;99.90;;;;;;10269755;28;20276;-84
2023/12/31 23:14:23;;;;;;;90.30;51.93;;;4.80;99.90;;;;;;10336820;28;20252;-84
2023/12/31 23:19:25;;;;;;;102.80;60.23;;;4.30;99.90;;;;;;10306887;28;20690;-84
2023/12/31 23:24:27;;;;;;;88.10;52.10;;;4.50;99.90;;;;;;10305851;28;20250;-84
2023/12/31 23:29:30;;;;;;;89.90;54.47;;;4.10;99.90;;;;;;10308249;28;20668;-84
2023/12/31 23:34:32;;;;;;;99.17;57.73;;;3.70;99.90;;;;;;10302319;28;20241;-84
2023/12/31 23:39:35;;;;;;;100.37;58.67;;;3.70;99.90;;;;;;10301470;28;20259;-84
2023/12/31 23:44:38;;;;;;;152.10;80.00;;;3.70;99.90;;;;;;10315910;28;20291;-84
2023/12/31 23:49:40;;;;;;;191.17;104.07;;;3.70;99.90;;;;;;10307030;28;20221;-84
2023/12/31 23:54:44;;;;;;;156.27;85.03;;;3.60;99.90;;;;;;10294157;28;20237;-84
2023/12/31 23:59:47;;;;;;;125.07;71.27;;;3.50;99.90;;;;;;10293475;28;20241;-84
